Brainerd Lakes Regional Airport
KBRD : rendu visible

Aérodrome :











RETROUVEZ-NOUS SUR...

 
LOGIN :

S'inscrire | Disclaimer

   EN    FR    IT 

 









Légende :    VFR   VFR Marginal   IFR   IFR Intensif   IFR Très Intensif
Visi : 
Plafond : 
>= 8 km
>= 3000ft
5 à 8 km
1000 à 3000 ft
1500m à 5 km
500 à 1000 ft
800 à 1500m
200 à 500 ft
< 800m
< 200 ft
Symboles :   Orages  Brouillard  Fortes neiges  Fortes précipitations  Vent > 20 kt






- Altitude de l'aérodrome : 1232 ft


KBRD - Brainerd Lakes Regional

DERNIER METAR :
  • 100653Z AUTO 25004KT 9SM CLR M23/M27 A2997 RMK AO2 SLP182 T12281267

METARs EXPIRÉS :
  • 100553Z AUTO 23003KT 9SM CLR M22/M26 A2996 RMK AO2 SLP179 T12221261 11139 21228 410671228 51018
  • 100453Z AUTO 00000KT 9SM CLR M22/M26 A2994 RMK AO2 SLP174 T12171256

TAF KBRD
Valide du 10 à 06h jusqu'au 11 à 06h UTC


100531Z 1006/1106 VRB02KT P6SM SCT250
FM100900 30007KT P6SM BKN021
FM101800 29008KT P6SM FEW250



MET'MAP, la Météo Aéronautique d'un coup d'oeil ! - Copyright ORBIFLY Décembre 2007 - Disclaimer

ORBIFLY MET'MAP TEAM :

Programmation & Développement : Alexandra Zaïnal
Sur une idée originale de : Baudouin d'Aumeries
Assistance à la programmation : Marc-Olivier Méhu
Soutien technique & logistique : Manuel Goepfert

Contact : metmap@orbifly.com




SOURCES & CREDITS :

   NOAA       Earth
Advisory